| time (UTC) | temp F | wind direction | speed MPH | gust MPH | rain 1hr in | rain 24hr in | rain mn in | humidity % | barometer mb |
| 20260510005517 | 59 | 47 | 6.0 | 11.0 | 0.00 | 0.00 | 0.00 | 71 | 1010.1 |
| 20260510004518 | 60 | 48 | 5.0 | 10.0 | 0.00 | 0.00 | 0.00 | 71 | 1010.2 |
| 20260510003518 | 60 | 53 | 5.0 | 13.0 | 0.00 | 0.00 | 0.00 | 70 | 1010.4 |
| 20260510002517 | 60 | 45 | 5.0 | 12.0 | 0.00 | 0.00 | 0.00 | 70 | 1010.5 |
| 20260510001518 | 60 | 58 | 5.0 | 13.0 | 0.00 | 0.00 | 0.00 | 70 | 1010.6 |
| 20260510000537 | 60 | 53 | 5.0 | 11.0 | 0.00 | 0.00 | 0.00 | 69 | 1010.7 |
| 20260509235518 | 60 | 49 | 6.0 | 13.0 | 0.00 | 0.00 | 0.00 | 70 | 1010.8 |
| 20260509234537 | 61 | 50 | 6.0 | 11.0 | 0.00 | 0.00 | 0.00 | 70 | 1010.8 |
| 20260509233517 | 61 | 56 | 7.0 | 13.0 | 0.00 | 0.00 | 0.00 | 70 | 1010.9 |
| 20260509232517 | 61 | 48 | 5.0 | 11.0 | 0.00 | 0.00 | 0.00 | 70 | 1010.9 |
| 20260509231517 | 61 | 50 | 4.0 | 10.0 | 0.00 | 0.00 | 0.00 | 70 | 1011.0 |
| 20260509230517 | 61 | 54 | 5.0 | 11.0 | 0.00 | 0.00 | 0.00 | 70 | 1011.1 |
| 20260509225517 | 61 | 52 | 5.0 | 11.0 | 0.00 | 0.00 | 0.00 | 70 | 1011.1 |
| 20260509224517 | 62 | 52 | 4.0 | 10.0 | 0.00 | 0.00 | 0.00 | 70 | 1011.1 |
| 20260509223537 | 62 | 54 | 4.0 | 11.0 | 0.00 | 0.00 | 0.00 | 70 | 1011.1 |
| 20260509222517 | 62 | 51 | 5.0 | 10.0 | 0.00 | 0.00 | 0.00 | 70 | 1011.2 |
| 20260509221518 | 62 | 54 | 5.0 | 10.0 | 0.00 | 0.00 | 0.00 | 71 | 1011.2 |
| 20260509220517 | 62 | 52 | 4.0 | 9.0 | 0.00 | 0.00 | 0.00 | 71 | 1011.2 |
| 20260509215516 | 62 | 52 | 5.0 | 11.0 | 0.00 | 0.00 | 0.00 | 71 | 1011.2 |
| 20260509214517 | 62 | 54 | 4.0 | 9.0 | 0.00 | 0.00 | 0.00 | 71 | 1011.2 |
| 20260509213517 | 63 | 49 | 4.0 | 8.0 | 0.00 | 0.00 | 0.00 | 71 | 1011.3 |
| 20260509212537 | 63 | 43 | 3.0 | 8.0 | 0.00 | 0.00 | 0.00 | 71 | 1011.4 |
| 20260509211517 | 63 | 50 | 3.0 | 5.0 | 0.00 | 0.00 | 0.00 | 71 | 1011.5 |
| 20260509210517 | 63 | 48 | 3.0 | 5.0 | 0.00 | 0.00 | 0.00 | 70 | 1011.4 |
| 20260509205517 | 63 | 56 | 3.0 | 6.0 | 0.00 | 0.00 | 0.00 | 70 | 1011.4 |
| 20260509204517 | 63 | 54 | 3.0 | 9.0 | 0.00 | 0.00 | 0.00 | 70 | 1011.3 |
| 20260509203517 | 64 | 55 | 3.0 | 9.0 | 0.00 | 0.00 | 0.00 | 70 | 1011.4 |
| 20260509202557 | 64 | 53 | 3.0 | 7.0 | 0.00 | 0.00 | 0.00 | 69 | 1011.4 |
| 20260509201517 | 64 | 51 | 3.0 | 5.0 | 0.00 | 0.00 | 0.00 | 68 | 1011.3 |
| 20260509200517 | 65 | 52 | 3.0 | 6.0 | 0.00 | 0.00 | 0.00 | 67 | 1011.4 |
| 20260509195517 | 65 | 53 | 2.0 | 5.0 | 0.00 | 0.00 | 0.00 | 67 | 1011.3 |
| 20260509194517 | 64 | 51 | 3.0 | 9.0 | 0.00 | 0.00 | 0.00 | 68 | 1011.1 |
| 20260509193517 | 64 | 53 | 3.0 | 7.0 | 0.00 | 0.00 | 0.00 | 69 | 1011.1 |
| 20260509192517 | 65 | 44 | 2.0 | 5.0 | 0.00 | 0.00 | 0.00 | 68 | 1011.0 |
| 20260509191517 | 66 | 48 | 1.0 | 3.0 | 0.00 | 0.00 | 0.00 | 66 | 1011.0 |
| 20260509190517 | 67 | 54 | 1.0 | 3.0 | 0.00 | 0.00 | 0.00 | 64 | 1010.9 |
| 20260509185517 | 67 | 61 | 1.0 | 4.0 | 0.00 | 0.00 | 0.00 | 63 | 1010.9 |
| 20260509184517 | 68 | 64 | 2.0 | 4.0 | 0.00 | 0.00 | 0.00 | 62 | 1010.8 |
| 20260509183517 | 69 | 63 | 2.0 | 4.0 | 0.00 | 0.00 | 0.00 | 61 | 1010.7 |
| 20260509182518 | 69 | 59 | 1.0 | 4.0 | 0.00 | 0.00 | 0.00 | 60 | 1010.7 |
| 20260509181537 | 70 | 63 | 2.0 | 4.0 | 0.00 | 0.00 | 0.00 | 57 | 1010.6 |
| 20260509180537 | 70 | 65 | 2.0 | 7.0 | 0.00 | 0.00 | 0.00 | 56 | 1010.6 |
| 20260509175517 | 71 | 66 | 3.0 | 9.0 | 0.00 | 0.00 | 0.00 | 56 | 1010.5 |
| 20260509174517 | 71 | 65 | 3.0 | 11.0 | 0.00 | 0.00 | 0.00 | 56 | 1010.5 |
| 20260509173517 | 71 | 61 | 5.0 | 9.0 | 0.00 | 0.00 | 0.00 | 56 | 1010.5 |
| 20260509172517 | 71 | 56 | 3.0 | 8.0 | 0.00 | 0.00 | 0.00 | 56 | 1010.6 |
| 20260509171537 | 71 | 53 | 3.0 | 7.0 | 0.00 | 0.00 | 0.00 | 56 | 1010.8 |
| 20260509170517 | 72 | 67 | 4.0 | 9.0 | 0.00 | 0.00 | 0.00 | 53 | 1010.8 |
| 20260509165517 | 73 | 66 | 5.0 | 10.0 | 0.00 | 0.00 | 0.00 | 53 | 1010.9 |
| 20260509164517 | 73 | 66 | 6.0 | 11.0 | 0.00 | 0.00 | 0.00 | 53 | 1010.8 |
| 20260509163517 | 73 | 69 | 2.0 | 8.0 | 0.00 | 0.00 | 0.00 | 52 | 1010.9 |
| 20260509162537 | 73 | 68 | 4.0 | 10.0 | 0.00 | 0.00 | 0.00 | 52 | 1010.9 |
| 20260509161537 | 73 | 75 | 4.0 | 8.0 | 0.00 | 0.00 | 0.00 | 52 | 1010.9 |
| 20260509160517 | 73 | 86 | 3.0 | 9.0 | 0.00 | 0.00 | 0.00 | 52 | 1011.0 |
| 20260509155517 | 74 | 108 | 3.0 | 9.0 | 0.00 | 0.00 | 0.00 | 54 | 1011.1 |
| 20260509154517 | 74 | 61 | 5.0 | 11.0 | 0.00 | 0.00 | 0.00 | 52 | 1011.1 |
| 20260509153517 | 74 | 62 | 3.0 | 7.0 | 0.00 | 0.00 | 0.00 | 51 | 1011.2 |
| 20260509152517 | 75 | 91 | 2.0 | 7.0 | 0.00 | 0.00 | 0.00 | 52 | 1011.5 |
| 20260509151517 | 75 | 78 | 2.0 | 10.0 | 0.00 | 0.00 | 0.00 | 53 | 1011.7 |
| 20260509150537 | 74 | 74 | 5.0 | 12.0 | 0.00 | 0.00 | 0.00 | 52 | 1011.8 |
| 20260509145517 | 75 | 66 | 5.0 | 12.0 | 0.00 | 0.00 | 0.00 | 51 | 1011.8 |
| 20260509144517 | 76 | 67 | 4.0 | 12.0 | 0.00 | 0.00 | 0.00 | 50 | 1011.9 |
| 20260509143517 | 76 | 130 | 4.0 | 10.0 | 0.00 | 0.00 | 0.00 | 52 | 1011.9 |
| 20260509142537 | 76 | 129 | 4.0 | 11.0 | 0.00 | 0.00 | 0.00 | 54 | 1011.8 |
| 20260509141517 | 75 | 135 | 3.0 | 8.0 | 0.00 | 0.00 | 0.00 | 52 | 1011.8 |
| 20260509140517 | 74 | 132 | 4.0 | 11.0 | 0.00 | 0.00 | 0.00 | 54 | 1011.8 |
| 20260509135517 | 74 | 81 | 3.0 | 12.0 | 0.00 | 0.00 | 0.00 | 50 | 1011.7 |
| 20260509134517 | 75 | 142 | 4.0 | 10.0 | 0.00 | 0.00 | 0.00 | 53 | 1011.6 |
| 20260509133517 | 75 | 137 | 4.0 | 11.0 | 0.00 | 0.00 | 0.00 | 50 | 1011.7 |
| 20260509132537 | 75 | 86 | 3.0 | 9.0 | 0.00 | 0.00 | 0.00 | 51 | 1011.8 |
| 20260509131517 | 75 | 87 | 3.0 | 8.0 | 0.00 | 0.00 | 0.00 | 50 | 1011.9 |
| 20260509130517 | 74 | 80 | 2.0 | 9.0 | 0.00 | 0.00 | 0.00 | 50 | 1012.0 |
| 20260509125517 | 74 | 124 | 2.0 | 11.0 | 0.00 | 0.00 | 0.00 | 53 | 1012.0 |
| 20260509124517 | 74 | 84 | 5.0 | 12.0 | 0.00 | 0.00 | 0.00 | 52 | 1012.1 |
| 20260509123537 | 74 | 66 | 5.0 | 12.0 | 0.00 | 0.00 | 0.00 | 52 | 1012.1 |
| 20260509122517 | 73 | 119 | 2.0 | 7.0 | 0.00 | 0.00 | 0.00 | 55 | 1012.2 |
| 20260509121517 | 72 | 102 | 3.0 | 9.0 | 0.00 | 0.00 | 0.00 | 55 | 1012.3 |
| 20260509120517 | 72 | 66 | 3.0 | 9.0 | 0.00 | 0.00 | 0.00 | 56 | 1012.4 |
| 20260509115537 | 72 | 88 | 4.0 | 10.0 | 0.00 | 0.00 | 0.00 | 56 | 1012.6 |
| 20260509114517 | 72 | 103 | 3.0 | 8.0 | 0.00 | 0.00 | 0.00 | 57 | 1012.7 |
| 20260509113537 | 72 | 90 | 4.0 | 10.0 | 0.00 | 0.00 | 0.00 | 58 | 1012.8 |
| 20260509112517 | 72 | 122 | 3.0 | 12.0 | 0.00 | 0.00 | 0.00 | 59 | 1012.8 |
| 20260509111517 | 72 | 129 | 3.0 | 11.0 | 0.00 | 0.00 | 0.00 | 61 | 1013.0 |
| 20260509110517 | 72 | 137 | 3.0 | 11.0 | 0.00 | 0.00 | 0.00 | 59 | 1013.0 |
| 20260509105517 | 71 | 147 | 4.0 | 9.0 | 0.00 | 0.00 | 0.00 | 60 | 1013.1 |
| 20260509104517 | 70 | 123 | 3.0 | 7.0 | 0.00 | 0.00 | 0.00 | 59 | 1013.1 |
| 20260509103517 | 70 | 59 | 3.0 | 7.0 | 0.00 | 0.00 | 0.00 | 61 | 1013.1 |
| 20260509102518 | 70 | 47 | 3.0 | 8.0 | 0.00 | 0.00 | 0.00 | 60 | 1013.2 |
| 20260509101517 | 69 | 68 | 2.0 | 7.0 | 0.00 | 0.00 | 0.00 | 60 | 1013.2 |
| 20260509100537 | 70 | 134 | 3.0 | 6.0 | 0.00 | 0.00 | 0.00 | 60 | 1013.2 |
| 20260509095517 | 69 | 65 | 2.0 | 7.0 | 0.00 | 0.00 | 0.00 | 61 | 1013.1 |
| 20260509094517 | 69 | 67 | 4.0 | 9.0 | 0.00 | 0.00 | 0.00 | 62 | 1013.1 |
| 20260509093517 | 68 | 83 | 2.0 | 7.0 | 0.00 | 0.00 | 0.00 | 63 | 1013.2 |
| 20260509092517 | 68 | 75 | 2.0 | 6.0 | 0.00 | 0.00 | 0.00 | 62 | 1013.2 |
| 20260509091517 | 67 | 85 | 2.0 | 7.0 | 0.00 | 0.00 | 0.00 | 63 | 1013.3 |
| 20260509090517 | 66 | 110 | 2.0 | 8.0 | 0.00 | 0.00 | 0.00 | 65 | 1013.4 |
| 20260509085515 | 66 | 94 | 2.0 | 7.0 | 0.00 | 0.00 | 0.00 | 65 | 1013.4 |
| 20260509084517 | 65 | 57 | 4.0 | 9.0 | 0.00 | 0.00 | 0.00 | 66 | 1013.5 |
| 20260509083515 | 65 | 66 | 2.0 | 6.0 | 0.00 | 0.00 | 0.00 | 67 | 1013.5 |
| 20260509082517 | 64 | 76 | 2.0 | 6.0 | 0.00 | 0.00 | 0.00 | 67 | 1013.6 |
| 20260509081515 | 63 | 54 | 1.0 | 4.0 | 0.00 | 0.00 | 0.00 | 70 | 1013.8 |
| 20260509080517 | 62 | 62 | 1.0 | 6.0 | 0.00 | 0.00 | 0.00 | 70 | 1013.8 |
| 20260509075515 | 61 | 67 | 2.0 | 7.0 | 0.00 | 0.00 | 0.00 | 71 | 1013.9 |
| 20260509074517 | 61 | 71 | 3.0 | 7.0 | 0.00 | 0.00 | 0.00 | 72 | 1014.0 |
| 20260509073515 | 60 | 113 | 1.0 | 7.0 | 0.00 | 0.00 | 0.00 | 74 | 1014.1 |
| 20260509072537 | 60 | 68 | 3.0 | 8.0 | 0.00 | 0.00 | 0.00 | 74 | 1014.0 |
| 20260509071515 | 59 | 59 | 3.0 | 8.0 | 0.00 | 0.00 | 0.00 | 76 | 1014.1 |
| 20260509070517 | 58 | 68 | 1.0 | 5.0 | 0.00 | 0.00 | 0.00 | 77 | 1014.1 |
| 20260509065515 | 57 | 50 | 2.0 | 7.0 | 0.00 | 0.00 | 0.00 | 79 | 1014.1 |
| 20260509064517 | 56 | 68 | 3.0 | 8.0 | 0.00 | 0.00 | 0.00 | 81 | 1014.1 |
| 20260509063535 | 55 | 67 | 2.0 | 9.0 | 0.00 | 0.00 | 0.00 | 84 | 1013.9 |
| 20260509062517 | 53 | 61 | 3.0 | 10.0 | 0.00 | 0.00 | 0.00 | 85 | 1013.8 |
| 20260509061515 | 52 | 57 | 4.0 | 8.0 | 0.00 | 0.00 | 0.00 | 87 | 1013.7 |
| 20260509060517 | 51 | 55 | 3.0 | 9.0 | 0.00 | 0.00 | 0.00 | 89 | 1013.7 |
| 20260509055515 | 50 | 50 | 4.0 | 9.0 | 0.00 | 0.00 | 0.00 | 90 | 1013.8 |
| 20260509054517 | 50 | 45 | 1.0 | 4.0 | 0.00 | 0.00 | 0.00 | 90 | 1013.9 |
| 20260509053515 | 49 | 39 | 1.0 | 3.0 | 0.00 | 0.00 | 0.00 | 90 | 1013.8 |
| 20260509052537 | 49 | 51 | 1.0 | 3.0 | 0.00 | 0.00 | 0.00 | 91 | 1013.6 |
| 20260509051516 | 49 | 52 | 1.0 | 4.0 | 0.00 | 0.00 | 0.00 | 91 | 1013.6 |
| 20260509050517 | 48 | 36 | 1.0 | 5.0 | 0.00 | 0.00 | 0.00 | 91 | 1013.6 |
| 20260509045516 | 48 | 47 | 2.0 | 5.0 | 0.00 | 0.00 | 0.00 | 92 | 1013.6 |
| 20260509044517 | 48 | 50 | 2.0 | 7.0 | 0.00 | 0.00 | 0.00 | 91 | 1013.6 |
| 20260509043536 | 48 | 38 | 1.0 | 3.0 | 0.00 | 0.00 | 0.00 | 91 | 1013.6 |
| 20260509042517 | 48 | 40 | 0.0 | 1.0 | 0.00 | 0.00 | 0.00 | 90 | 1013.5 |
| 20260509041515 | 48 | 0.0 | 0.0 | 0.00 | 0.00 | 0.00 | 90 | 1013.6 | |
| 20260509040517 | 48 | 0.0 | 3.0 | 0.00 | 0.00 | 0.00 | 89 | 1013.7 | |
| 20260509035515 | 49 | 44 | 0.0 | 2.0 | 0.00 | 0.00 | 0.00 | 89 | 1013.6 |
| 20260509034517 | 49 | 80 | 0.0 | 3.0 | 0.00 | 0.00 | 0.00 | 89 | 1013.7 |
| 20260509033517 | 49 | 11 | 0.0 | 1.0 | 0.00 | 0.00 | 0.00 | 89 | 1013.6 |
| 20260509032517 | 49 | 36 | 1.0 | 2.0 | 0.00 | 0.00 | 0.00 | 89 | 1013.8 |
| 20260509031517 | 49 | 0.0 | 0.0 | 0.00 | 0.00 | 0.00 | 89 | 1013.8 | |
| 20260509030517 | 49 | 43 | 3.0 | 6.0 | 0.00 | 0.00 | 0.00 | 89 | 1013.9 |
| 20260509025517 | 49 | 47 | 3.0 | 6.0 | 0.00 | 0.00 | 0.00 | 89 | 1014.0 |
| 20260509024517 | 49 | 49 | 2.0 | 5.0 | 0.00 | 0.00 | 0.00 | 88 | 1014.1 |
| 20260509023517 | 50 | 43 | 2.0 | 4.0 | 0.00 | 0.00 | 0.00 | 88 | 1014.1 |
| 20260509022515 | 50 | 47 | 2.0 | 5.0 | 0.00 | 0.00 | 0.00 | 88 | 1014.0 |
| 20260509021516 | 50 | 41 | 2.0 | 6.0 | 0.00 | 0.00 | 0.00 | 88 | 1014.0 |
| 20260509020517 | 50 | 49 | 2.0 | 5.0 | 0.00 | 0.00 | 0.00 | 87 | 1014.0 |
| 20260509015517 | 50 | 42 | 2.0 | 3.0 | 0.00 | 0.00 | 0.00 | 88 | 1014.1 |
| 20260509014517 | 50 | 51 | 1.0 | 4.0 | 0.00 | 0.00 | 0.00 | 87 | 1014.1 |
| 20260509013517 | 50 | 52 | 2.0 | 3.0 | 0.00 | 0.00 | 0.00 | 87 | 1014.2 |
| 20260509012517 | 51 | 51 | 2.0 | 4.0 | 0.00 | 0.00 | 0.00 | 87 | 1014.3 |
| 20260509011517 | 51 | 53 | 2.0 | 6.0 | 0.00 | 0.00 | 0.00 | 87 | 1014.2 |
| 20260509010537 | 51 | 47 | 2.0 | 6.0 | 0.00 | 0.00 | 0.00 | 87 | 1014.3 |